This is the latest recevied weather packets stored in our database for station/object ON7XX-13. If no packets are shown the sender has not sent any weather packets the latest 10 day(s).
| Time | Temp. | Humidity | Pressure | Rain* | Wind** | Luminosity | Snow |
|---|---|---|---|---|---|---|---|
| 1777583154 | 16.11° C | 36% | 1023.2 hPa | - | - | - | - |
| 1777582540 | 16.67° C | 35% | 1023.1 hPa | - | - | - | - |
| 1777581926 | 16.67° C | 35% | 1023 hPa | - | - | - | - |
| 1777581312 | 17.22° C | 34% | 1022.9 hPa | - | - | - | - |
| 1777580697 | 17.22° C | 34% | 1022.8 hPa | - | - | - | - |
| 1777579468 | 17.78° C | 33% | 1022.6 hPa | - | - | - | - |
| 1777578854 | 18.33° C | 33% | 1022.6 hPa | - | - | - | - |
| 1777578240 | 18.89° C | 33% | 1022.4 hPa | - | - | - | - |
| 1777577626 | 18.89° C | 32% | 1022.4 hPa | - | - | - | - |
| 1777577012 | 19.44° C | 31% | 1022.1 hPa | - | - | - | - |
| 1777576397 | 20° C | 31% | 1021.9 hPa | - | - | - | - |
| 1777575783 | 20.56° C | 31% | 1021.8 hPa | - | - | - | - |
| 1777575169 | 20.56° C | 32% | 1021.8 hPa | - | - | - | - |
| 1777574555 | 21.11° C | 31% | 1021.7 hPa | - | - | - | - |
| 1777573941 | 21.11° C | 30% | 1021.7 hPa | - | - | - | - |
| 1777573326 | 22.22° C | 29% | 1021.5 hPa | - | - | - | - |
| 1777572712 | 22.22° C | 29% | 1021.5 hPa | - | - | - | - |
| 1777572098 | 22.78° C | 28% | 1021.4 hPa | - | - | - | - |
| 1777571484 | 23.33° C | 28% | 1021.3 hPa | - | - | - | - |
| 1777570870 | 24.44° C | 25% | 1021.2 hPa | - | - | - | - |
| 1777570256 | 25° C | 25% | 1021.1 hPa | - | - | - | - |
| 1777569641 | 25.56° C | 24% | 1021 hPa | - | - | - | - |
| 1777569027 | 25.56° C | 24% | 1021 hPa | - | - | - | - |
| 1777568410 | 26.11° C | 24% | 1021.1 hPa | - | - | - | - |
| 1777567796 | 26.11° C | 24% | 1021.2 hPa | - | - | - | - |
* Rain since midnight (hover to see other rain measurements)
** Current wind speed in m/s (hover to see current wind gust speed)